createdAt,value
2022-09-28T00:01:22.022Z,12.12
2022-09-28T00:03:51.687Z,12.03
2022-09-28T00:06:22.636Z,12.07
2022-09-28T00:08:52.137Z,12.11
2022-09-28T00:11:22.092Z,12.13
2022-09-28T00:13:56.607Z,12.14
2022-09-28T00:16:28.635Z,12.11
2022-09-28T00:18:55.848Z,12.09
2022-09-28T00:21:28.678Z,12.04
2022-09-28T00:24:22.947Z,11.96
2022-09-28T00:26:58.168Z,11.98
2022-09-28T00:29:29.199Z,11.98
2022-09-28T00:32:03.400Z,11.97
2022-09-28T00:34:35.990Z,11.97
2022-09-28T00:37:05.800Z,11.86
2022-09-28T00:39:32.816Z,11.82
2022-09-28T00:41:59.926Z,11.81
2022-09-28T00:44:38.105Z,11.85
2022-09-28T00:47:17.561Z,11.84
2022-09-28T00:49:49.930Z,11.83
2022-09-28T00:53:14.238Z,11.85
2022-09-28T00:55:46.649Z,11.83
2022-09-28T00:58:31.205Z,11.84
2022-09-28T01:01:00.196Z,11.86
2022-09-28T01:03:29.314Z,11.87
2022-09-28T01:06:00.577Z,11.82
2022-09-28T01:08:30.204Z,11.81
2022-09-28T01:11:00.000Z,11.82
2022-09-28T01:13:28.350Z,11.84
2022-09-28T01:16:19.316Z,11.76
2022-09-28T01:19:21.636Z,11.81
2022-09-28T01:22:09.941Z,11.80
2022-09-28T01:24:51.853Z,11.78
2022-09-28T01:27:38.966Z,11.73
2022-09-28T01:30:08.782Z,11.77
2022-09-28T01:33:02.804Z,11.71
2022-09-28T01:35:35.467Z,11.69
2022-09-28T01:38:14.878Z,11.64
2022-09-28T01:40:43.194Z,11.58
2022-09-28T01:43:19.989Z,11.55
2022-09-28T01:45:58.761Z,11.64
2022-09-28T01:48:52.217Z,11.65
2022-09-28T01:51:32.190Z,11.65
2022-09-28T01:54:09.469Z,11.59
2022-09-28T01:56:57.265Z,11.59
2022-09-28T01:59:35.808Z,11.60
2022-09-28T02:02:15.752Z,11.58
2022-09-28T02:05:09.038Z,11.54
2022-09-28T02:07:47.374Z,11.50
2022-09-28T02:10:22.107Z,11.48
2022-09-28T02:12:54.581Z,11.47
2022-09-28T02:15:50.621Z,11.45
2022-09-28T02:18:17.858Z,11.45
2022-09-28T02:21:00.655Z,11.46
2022-09-28T02:23:35.078Z,11.47
2022-09-28T02:26:08.365Z,11.47
2022-09-28T02:28:35.396Z,11.48
2022-09-28T02:31:02.570Z,11.48
2022-09-28T02:33:40.769Z,11.48
2022-09-28T02:36:08.177Z,11.50
2022-09-28T02:38:36.849Z,11.52
2022-09-28T02:41:46.587Z,11.52
2022-09-28T02:44:34.120Z,11.48
2022-09-28T02:47:28.227Z,11.44
2022-09-28T02:50:30.180Z,11.51
2022-09-28T02:53:27.182Z,11.50
2022-09-28T02:55:56.739Z,11.45
2022-09-28T02:58:41.620Z,11.37
2022-09-28T03:01:20.516Z,11.34
2022-09-28T03:03:52.953Z,11.28
2022-09-28T03:06:36.732Z,11.27
2022-09-28T03:09:20.156Z,11.25
2022-09-28T03:11:57.471Z,11.27
2022-09-28T03:14:24.753Z,11.26
2022-09-28T03:16:51.822Z,11.23
2022-09-28T03:19:27.873Z,11.18
2022-09-28T03:21:55.710Z,11.15
2022-09-28T03:24:22.496Z,11.09
2022-09-28T03:26:49.292Z,11.16
2022-09-28T03:29:16.430Z,11.16
2022-09-28T03:31:44.303Z,11.14
2022-09-28T03:34:11.190Z,11.15
2022-09-28T03:36:38.275Z,11.17
2022-09-28T03:39:05.066Z,11.14
2022-09-28T03:41:31.982Z,11.16
2022-09-28T03:43:58.916Z,11.13
2022-09-28T03:46:25.784Z,11.17
2022-09-28T03:48:52.568Z,11.18
2022-09-28T03:51:19.693Z,11.17
2022-09-28T03:53:46.469Z,11.13
2022-09-28T03:56:15.785Z,11.13
2022-09-28T03:58:43.136Z,11.06
2022-09-28T04:01:16.818Z,11.02
2022-09-28T04:03:45.884Z,11.04
2022-09-28T04:06:14.023Z,11.01
2022-09-28T04:08:40.996Z,11.07
2022-09-28T04:11:07.949Z,11.04
2022-09-28T04:13:34.796Z,10.99
2022-09-28T04:16:02.125Z,10.93
2022-09-28T04:18:29.694Z,10.91
2022-09-28T04:21:09.042Z,10.88
2022-09-28T04:23:39.397Z,10.84
2022-09-28T04:26:19.016Z,10.91
2022-09-28T04:29:16.556Z,10.91
2022-09-28T04:31:47.849Z,10.86
2022-09-28T04:34:21.664Z,10.81
2022-09-28T04:36:49.194Z,10.82
2022-09-28T04:39:19.371Z,10.75
2022-09-28T04:41:48.935Z,10.73
2022-09-28T04:44:15.948Z,10.73
2022-09-28T04:46:43.071Z,10.69
2022-09-28T04:49:11.323Z,10.68
2022-09-28T04:51:38.234Z,10.65
2022-09-28T04:54:05.305Z,10.67
2022-09-28T04:56:32.248Z,10.69
2022-09-28T04:58:59.287Z,10.74
2022-09-28T05:01:26.521Z,10.74
2022-09-28T05:03:53.389Z,10.75
2022-09-28T05:06:21.175Z,10.77
2022-09-28T05:08:48.504Z,10.80
2022-09-28T05:11:15.493Z,10.87
2022-09-28T05:13:45.603Z,10.88
2022-09-28T05:16:16.499Z,10.87
2022-09-28T05:18:43.462Z,10.88
2022-09-28T05:21:15.752Z,10.89
2022-09-28T05:23:47.639Z,10.90
2022-09-28T05:26:15.072Z,10.91
2022-09-28T05:28:41.946Z,10.88
2022-09-28T05:31:09.054Z,10.89
2022-09-28T05:33:37.348Z,10.85
2022-09-28T05:36:04.571Z,10.79
2022-09-28T05:38:31.626Z,10.76
2022-09-28T05:40:59.694Z,10.75
2022-09-28T05:43:27.974Z,10.77
2022-09-28T05:45:55.923Z,10.83
2022-09-28T05:48:23.404Z,10.88
2022-09-28T05:50:54.127Z,10.89
2022-09-28T05:53:21.237Z,10.86
2022-09-28T05:55:48.636Z,10.93
2022-09-28T05:58:16.153Z,10.97
2022-09-28T06:00:43.921Z,11.00
2022-09-28T06:03:13.658Z,11.06
2022-09-28T06:05:41.625Z,11.09
2022-09-28T06:08:10.771Z,11.12
2022-09-28T06:10:38.767Z,11.14
2022-09-28T06:13:06.877Z,11.09
2022-09-28T06:15:36.192Z,11.08
2022-09-28T06:18:07.280Z,11.14
2022-09-28T06:20:37.282Z,11.16
2022-09-28T06:23:04.835Z,11.15
2022-09-28T06:25:32.282Z,11.19
2022-09-28T06:28:10.177Z,11.19
2022-09-28T06:30:38.594Z,11.16
2022-09-28T06:33:08.467Z,11.08
2022-09-28T06:35:35.383Z,10.99
2022-09-28T06:38:03.148Z,10.91
2022-09-28T06:40:31.065Z,10.90
2022-09-28T06:43:16.186Z,10.84
2022-09-28T06:45:43.924Z,10.82
2022-09-28T06:48:11.746Z,10.91
2022-09-28T06:50:41.491Z,10.93
2022-09-28T06:53:13.821Z,10.95
2022-09-28T06:55:49.972Z,10.96
2022-09-28T06:58:20.828Z,10.89
2022-09-28T07:00:51.763Z,10.84
2022-09-28T07:03:22.642Z,10.82
2022-09-28T07:05:53.957Z,10.88
2022-09-28T07:08:25.073Z,10.92
2022-09-28T07:10:56.753Z,10.95
2022-09-28T07:16:15.410Z,11.05
2022-09-28T07:18:42.655Z,11.08
2022-09-28T07:21:16.463Z,11.11
2022-09-28T07:23:53.818Z,11.10
2022-09-28T07:26:24.328Z,11.02
2022-09-28T07:28:52.558Z,10.98
2022-09-28T07:31:19.424Z,11.01
2022-09-28T07:33:47.521Z,10.97
2022-09-28T07:36:17.939Z,10.97
2022-09-28T07:38:44.854Z,10.94
2022-09-28T07:41:12.004Z,10.90
2022-09-28T07:43:41.118Z,10.92
2022-09-28T07:46:12.580Z,10.97
2022-09-28T07:48:43.930Z,10.89
2022-09-28T07:51:11.155Z,10.87
2022-09-28T07:53:40.757Z,10.86
2022-09-28T07:56:09.486Z,10.92
2022-09-28T07:58:39.706Z,10.88
2022-09-28T08:01:10.959Z,10.91
2022-09-28T08:03:39.481Z,10.97
2022-09-28T08:06:11.261Z,11.00
2022-09-28T08:08:44.881Z,10.98
2022-09-28T08:11:18.999Z,10.93
2022-09-28T08:13:46.615Z,10.88
2022-09-28T08:16:14.117Z,10.84
2022-09-28T08:18:42.281Z,10.89
2022-09-28T08:21:29.055Z,10.88
2022-09-28T08:23:56.498Z,10.87
2022-09-28T08:26:23.571Z,10.88
2022-09-28T08:28:51.276Z,10.89
2022-09-28T08:31:18.486Z,10.87
2022-09-28T08:33:45.369Z,10.89
2022-09-28T08:36:12.429Z,10.91
2022-09-28T08:38:39.540Z,10.89
2022-09-28T08:41:48.802Z,10.81
2022-09-28T08:44:25.336Z,10.84
2022-09-28T08:47:03.973Z,10.86
2022-09-28T08:49:43.768Z,10.82
2022-09-28T08:52:26.052Z,10.78
2022-09-28T08:55:37.390Z,10.81
2022-09-28T08:58:17.653Z,10.89
2022-09-28T09:00:50.390Z,10.97
2022-09-28T09:03:26.123Z,11.00
2022-09-28T09:06:19.289Z,10.97
2022-09-28T09:09:01.122Z,10.92
2022-09-28T09:11:46.165Z,10.79
2022-09-28T09:14:52.599Z,10.75
2022-09-28T09:17:41.581Z,10.67
2022-09-28T09:20:28.857Z,10.65
2022-09-28T09:23:17.753Z,10.72
2022-09-28T09:25:59.761Z,10.74
2022-09-28T09:28:38.340Z,10.74
2022-09-28T09:31:43.220Z,10.76
2022-09-28T09:34:35.451Z,10.75
2022-09-28T09:37:34.578Z,10.79
2022-09-28T09:40:55.478Z,10.85
2022-09-28T09:43:47.306Z,10.87
2022-09-28T09:46:33.578Z,10.93
2022-09-28T09:49:26.567Z,10.94
2022-09-28T09:52:14.757Z,10.91
2022-09-28T09:55:14.120Z,10.95
2022-09-28T09:57:53.304Z,11.02
2022-09-28T10:00:20.439Z,11.04
2022-09-28T10:02:49.925Z,11.07
2022-09-28T10:05:30.173Z,11.13
2022-09-28T10:08:08.921Z,11.15
2022-09-28T10:10:50.827Z,11.11
2022-09-28T10:13:17.909Z,11.10
2022-09-28T10:15:47.669Z,11.11
2022-09-28T10:18:21.048Z,11.19
2022-09-28T10:20:49.198Z,11.21
2022-09-28T10:23:30.880Z,11.26
2022-09-28T10:26:07.601Z,11.29
2022-09-28T10:28:48.637Z,11.31
2022-09-28T10:31:48.437Z,11.36
2022-09-28T10:34:19.743Z,11.45
2022-09-28T10:37:03.359Z,11.50
2022-09-28T10:39:55.116Z,11.53
2022-09-28T10:42:34.146Z,11.60
2022-09-28T10:45:20.536Z,11.59
2022-09-28T10:47:47.957Z,11.60
2022-09-28T10:50:24.288Z,11.70
2022-09-28T10:52:51.459Z,11.78
2022-09-28T10:55:21.342Z,11.82
2022-09-28T10:57:48.569Z,11.84
2022-09-28T11:00:41.849Z,11.91
2022-09-28T11:03:19.372Z,11.90
2022-09-28T11:05:59.398Z,11.97
2022-09-28T11:08:34.434Z,11.95
2022-09-28T11:11:19.581Z,11.99
2022-09-28T11:14:04.056Z,12.01
2022-09-28T11:16:36.546Z,12.06
2022-09-28T11:19:26.611Z,12.11
2022-09-28T11:21:53.723Z,12.17
2022-09-28T11:24:26.074Z,12.21
2022-09-28T11:26:59.238Z,12.30
2022-09-28T11:29:56.627Z,12.38
2022-09-28T11:32:30.823Z,12.37
2022-09-28T11:35:00.755Z,12.43
2022-09-28T11:38:03.543Z,12.46
2022-09-28T11:41:16.465Z,12.48
2022-09-28T11:44:14.905Z,12.53
2022-09-28T11:47:00.712Z,12.61
2022-09-28T11:49:37.809Z,12.66
2022-09-28T11:53:10.381Z,12.71
2022-09-28T11:56:22.460Z,12.76
2022-09-28T11:58:57.567Z,12.88
2022-09-28T12:01:48.964Z,12.93
2022-09-28T12:04:43.923Z,12.92
2022-09-28T12:07:22.432Z,12.91
2022-09-28T12:10:18.940Z,12.99
2022-09-28T12:13:01.014Z,13.04
2022-09-28T12:16:17.104Z,13.05
2022-09-28T12:18:57.632Z,13.10
2022-09-28T12:21:24.540Z,13.15
2022-09-28T12:24:14.823Z,13.27
2022-09-28T12:27:03.380Z,13.17
2022-09-28T12:29:37.618Z,13.33
2022-09-28T12:32:25.788Z,13.30
2022-09-28T12:34:53.101Z,13.40
2022-09-28T12:38:11.171Z,13.48
2022-09-28T12:40:45.543Z,13.53
2022-09-28T12:43:40.655Z,13.61
2022-09-28T12:46:32.569Z,13.65
2022-09-28T12:52:32.308Z,13.72
2022-09-28T12:55:23.896Z,13.70
2022-09-28T12:58:04.857Z,13.74
2022-09-28T13:01:04.873Z,13.79
2022-09-28T13:03:42.579Z,13.83
2022-09-28T13:06:37.780Z,13.89
2022-09-28T13:09:21.919Z,13.91
2022-09-28T13:12:19.484Z,13.96
2022-09-28T13:14:57.652Z,13.98
2022-09-28T13:17:45.358Z,13.84
2022-09-28T13:20:32.325Z,13.79
2022-09-28T13:23:34.614Z,13.87
2022-09-28T13:26:11.530Z,13.93
2022-09-28T13:28:40.843Z,13.86
2022-09-28T13:31:09.859Z,13.71
2022-09-28T13:33:45.135Z,13.57
2022-09-28T13:36:30.669Z,13.52
2022-09-28T13:39:01.881Z,13.48
2022-09-28T13:41:38.223Z,13.51
2022-09-28T13:44:13.711Z,13.51
2022-09-28T13:47:11.558Z,13.53
2022-09-28T13:50:18.603Z,13.59
2022-09-28T13:52:47.914Z,13.65
2022-09-28T13:55:25.222Z,13.63
2022-09-28T13:57:58.801Z,13.60
2022-09-28T14:00:51.596Z,13.70
2022-09-28T14:03:25.249Z,13.73
2022-09-28T14:06:10.993Z,13.82
2022-09-28T14:08:55.675Z,13.86
2022-09-28T14:11:34.955Z,13.84
2022-09-28T14:14:52.032Z,13.81
2022-09-28T14:17:22.323Z,13.85
2022-09-28T14:20:12.924Z,13.89
2022-09-28T14:23:00.825Z,13.92
2022-09-28T14:25:33.290Z,13.91
2022-09-28T14:28:26.409Z,13.91
2022-09-28T14:30:58.342Z,13.86
2022-09-28T14:33:33.560Z,13.93
2022-09-28T14:36:11.352Z,14.02
2022-09-28T14:39:07.049Z,14.10
2022-09-28T14:41:44.065Z,14.16
2022-09-28T14:44:16.423Z,14.16
2022-09-28T14:46:46.405Z,14.18
2022-09-28T14:49:19.737Z,14.15
2022-09-28T14:51:52.892Z,14.14
2022-09-28T14:54:23.515Z,14.15
2022-09-28T14:56:53.694Z,14.14
2022-09-28T14:59:36.543Z,14.14
2022-09-28T15:02:23.552Z,14.06
2022-09-28T15:04:53.401Z,14.14
2022-09-28T15:07:49.630Z,14.17
2022-09-28T15:10:39.748Z,14.22
2022-09-28T15:13:23.342Z,14.16
2022-09-28T15:15:59.790Z,14.17
2022-09-28T15:19:05.812Z,14.12
2022-09-28T15:21:39.883Z,14.11
2022-09-28T15:24:33.489Z,14.14
2022-09-28T15:27:04.799Z,14.13
2022-09-28T15:29:33.502Z,14.15
2022-09-28T15:32:00.986Z,14.12
2022-09-28T15:34:51.931Z,14.10
2022-09-28T15:37:40.238Z,14.16
2022-09-28T15:40:17.436Z,14.16
2022-09-28T15:42:46.235Z,14.15
2022-09-28T15:45:39.453Z,14.14
2022-09-28T15:48:31.887Z,14.16
2022-09-28T15:51:11.142Z,14.16
2022-09-28T15:54:19.648Z,14.16
2022-09-28T15:57:02.928Z,14.14
2022-09-28T15:59:39.395Z,14.15
2022-09-28T16:02:18.031Z,14.16
2022-09-28T16:05:01.814Z,14.16
2022-09-28T16:07:39.544Z,14.15
2022-09-28T16:10:12.565Z,14.14
2022-09-28T16:12:48.669Z,14.16
2022-09-28T16:15:27.868Z,14.14
2022-09-28T16:18:29.781Z,14.00
2022-09-28T16:21:31.610Z,13.96
2022-09-28T16:23:58.550Z,13.97
2022-09-28T16:26:36.196Z,13.96
2022-09-28T16:29:26.368Z,13.94
2022-09-28T16:31:55.963Z,13.89
2022-09-28T16:34:27.425Z,13.83
2022-09-28T16:36:54.744Z,13.81
2022-09-28T16:39:23.214Z,13.78
2022-09-28T16:42:01.842Z,13.76
2022-09-28T16:44:30.207Z,13.73
2022-09-28T16:47:00.402Z,13.71
2022-09-28T16:49:31.718Z,13.64
2022-09-28T16:52:12.468Z,13.61
2022-09-28T16:54:58.286Z,13.58
2022-09-28T16:57:25.506Z,13.59
2022-09-28T16:59:52.542Z,13.57
2022-09-28T17:05:13.555Z,13.53
2022-09-28T17:07:40.959Z,13.53
2022-09-28T17:10:49.760Z,13.52
2022-09-28T17:13:33.409Z,13.49
2022-09-28T17:16:09.062Z,13.46
2022-09-28T17:18:40.169Z,13.44
2022-09-28T17:21:16.021Z,13.38
2022-09-28T17:23:46.318Z,13.33
2022-09-28T17:26:34.895Z,13.28
2022-09-28T17:29:07.064Z,13.23
2022-09-28T17:31:35.526Z,13.19
2022-09-28T17:34:02.911Z,13.15
2022-09-28T17:36:30.727Z,13.12
2022-09-28T17:38:58.891Z,13.09
2022-09-28T17:41:26.151Z,13.05
2022-09-28T17:43:53.955Z,13.05
2022-09-28T17:46:37.438Z,13.00
2022-09-28T17:49:07.392Z,12.98
2022-09-28T17:51:39.404Z,12.95
2022-09-28T17:54:08.445Z,12.96
2022-09-28T17:56:36.958Z,12.96
2022-09-28T17:59:12.814Z,12.96
2022-09-28T18:01:41.256Z,12.93
2022-09-28T18:04:23.066Z,12.93
2022-09-28T18:06:59.323Z,12.87
2022-09-28T18:09:26.538Z,12.86
2022-09-28T18:12:04.162Z,12.85
2022-09-28T18:14:31.980Z,12.83
2022-09-28T18:16:59.690Z,12.79
2022-09-28T18:19:31.809Z,12.78
2022-09-28T18:22:02.052Z,12.76
2022-09-28T18:24:32.635Z,12.75
2022-09-28T18:27:01.209Z,12.68
2022-09-28T18:29:32.906Z,12.64
2022-09-28T18:32:02.007Z,12.59
2022-09-28T18:34:30.516Z,12.58
2022-09-28T18:36:57.981Z,12.57
2022-09-28T18:39:26.728Z,12.56
2022-09-28T18:41:54.059Z,12.53
2022-09-28T18:44:21.522Z,12.53
2022-09-28T18:46:48.732Z,12.47
2022-09-28T18:49:16.099Z,12.41
2022-09-28T18:51:43.536Z,12.41
2022-09-28T18:54:11.434Z,12.34
2022-09-28T18:56:38.832Z,12.30
2022-09-28T18:59:12.383Z,12.30
2022-09-28T19:01:42.098Z,12.27
2022-09-28T19:04:11.615Z,12.25
2022-09-28T19:06:42.889Z,12.26
2022-09-28T19:09:11.179Z,12.28
2022-09-28T19:11:38.332Z,12.27
2022-09-28T19:14:05.762Z,12.28
2022-09-28T19:16:36.081Z,12.26
2022-09-28T19:19:03.546Z,12.22
2022-09-28T19:21:31.652Z,12.17
2022-09-28T19:24:04.460Z,12.17
2022-09-28T19:26:32.954Z,12.16
2022-09-28T19:29:02.887Z,12.11
2022-09-28T19:31:31.077Z,12.09
2022-09-28T19:33:59.053Z,12.05
2022-09-28T19:36:28.655Z,11.98
2022-09-28T19:38:59.481Z,11.95
2022-09-28T19:41:43.679Z,11.92
2022-09-28T19:44:27.159Z,11.87
2022-09-28T19:47:09.837Z,11.83
2022-09-28T19:49:40.760Z,11.77
2022-09-28T19:52:16.928Z,11.71
2022-09-28T19:54:57.081Z,11.66
2022-09-28T19:57:28.017Z,11.64
2022-09-28T20:00:03.293Z,11.61
2022-09-28T20:02:31.057Z,11.58
2022-09-28T20:04:58.366Z,11.59
2022-09-28T20:07:25.825Z,11.54
2022-09-28T20:09:53.325Z,11.57
2022-09-28T20:12:21.142Z,11.55
2022-09-28T20:14:48.357Z,11.55
2022-09-28T20:17:15.439Z,11.54
2022-09-28T20:19:42.691Z,11.48
2022-09-28T20:22:11.131Z,11.47
2022-09-28T20:24:38.401Z,11.45
2022-09-28T20:27:06.203Z,11.45
2022-09-28T20:29:33.757Z,11.46
2022-09-28T20:32:04.011Z,11.42
2022-09-28T20:34:33.974Z,11.39
2022-09-28T20:37:02.598Z,11.41
2022-09-28T20:39:31.559Z,11.40
2022-09-28T20:42:00.978Z,11.35
2022-09-28T20:44:30.622Z,11.38
2022-09-28T20:46:57.880Z,11.36
2022-09-28T20:49:28.302Z,11.33
2022-09-28T20:51:55.909Z,11.36
2022-09-28T20:54:23.359Z,11.33
2022-09-28T20:56:50.773Z,11.32
2022-09-28T20:59:18.224Z,11.32
2022-09-28T21:01:45.697Z,11.24
2022-09-28T21:04:13.479Z,11.23
2022-09-28T21:06:42.872Z,11.25
2022-09-28T21:09:12.425Z,11.26
2022-09-28T21:11:39.924Z,11.26
2022-09-28T21:14:10.429Z,11.25
2022-09-28T21:16:38.212Z,11.21
2022-09-28T21:19:06.284Z,11.19
2022-09-28T21:21:33.732Z,11.19
2022-09-28T21:24:02.379Z,11.15
2022-09-28T21:26:31.417Z,11.15
2022-09-28T21:29:02.562Z,11.15
2022-09-28T21:31:42.631Z,11.14
2022-09-28T21:34:19.327Z,11.12
2022-09-28T21:36:53.555Z,11.09
2022-09-28T21:39:20.941Z,11.04
2022-09-28T21:41:48.114Z,10.99
2022-09-28T21:44:15.228Z,10.97
2022-09-28T21:46:42.634Z,10.91
2022-09-28T21:49:10.443Z,10.90
2022-09-28T21:51:38.100Z,10.86
2022-09-28T21:54:16.160Z,10.84
2022-09-28T22:01:37.463Z,10.69
2022-09-28T22:04:13.451Z,10.66
2022-09-28T22:06:40.912Z,10.63
2022-09-28T22:17:06.946Z,10.53
2022-09-28T22:19:36.861Z,10.49
2022-09-28T22:22:12.073Z,10.47
2022-09-28T22:24:39.150Z,10.46
2022-09-28T22:35:18.130Z,10.33
2022-09-28T22:41:07.446Z,10.35
2022-09-28T22:43:44.345Z,10.38
2022-09-28T22:56:49.245Z,10.28
2022-09-28T23:04:30.488Z,10.23
2022-09-28T23:06:57.700Z,10.31
2022-09-28T23:19:21.440Z,10.32
2022-09-28T23:22:10.495Z,10.34
2022-09-28T23:25:17.718Z,10.33
2022-09-28T23:32:54.007Z,10.26
2022-09-28T23:38:54.982Z,10.23
2022-09-28T23:46:23.367Z,10.30
2022-09-28T23:48:59.340Z,10.30
